createdAt,value
2022-12-10T00:01:51.033Z,65.70
2022-12-10T00:04:18.512Z,69.20
2022-12-10T00:06:46.504Z,63.63
2022-12-10T00:09:17.768Z,61.87
2022-12-10T00:11:45.390Z,66.10
2022-12-10T00:14:14.214Z,64.00
2022-12-10T00:16:42.143Z,62.43
2022-12-10T00:19:09.834Z,63.50
2022-12-10T00:21:38.456Z,57.40
2022-12-10T00:24:07.289Z,65.63
2022-12-10T00:26:38.365Z,65.37
2022-12-10T00:29:08.707Z,62.07
2022-12-10T00:31:38.909Z,62.40
2022-12-10T00:34:09.697Z,60.03
2022-12-10T00:36:43.998Z,56.53
2022-12-10T00:39:14.891Z,62.50
2022-12-10T00:41:42.400Z,60.73
2022-12-10T00:44:10.304Z,60.77
2022-12-10T00:46:37.958Z,62.33
2022-12-10T00:49:05.797Z,62.13
2022-12-10T00:51:33.337Z,63.43
2022-12-10T00:54:01.174Z,60.90
2022-12-10T00:56:32.166Z,60.93
2022-12-10T00:59:00.846Z,60.07
2022-12-10T01:01:38.120Z,61.97
2022-12-10T01:04:13.966Z,59.87
2022-12-10T01:06:52.668Z,62.27
2022-12-10T01:09:24.930Z,61.93
2022-12-10T01:11:54.489Z,60.87
2022-12-10T01:14:30.127Z,69.83
2022-12-10T01:17:01.236Z,65.70
2022-12-10T01:19:28.626Z,59.93
2022-12-10T01:21:57.316Z,69.27
2022-12-10T01:24:27.985Z,64.63
2022-12-10T01:26:59.009Z,61.60
2022-12-10T01:29:27.764Z,62.40
2022-12-10T01:31:57.964Z,66.90
2022-12-10T01:34:26.612Z,60.20
2022-12-10T01:36:55.418Z,60.83
2022-12-10T01:39:24.219Z,59.53
2022-12-10T01:41:56.095Z,60.50
2022-12-10T01:44:23.423Z,65.47
2022-12-10T01:46:54.731Z,61.67
2022-12-10T01:49:26.747Z,60.73
2022-12-10T01:51:57.144Z,60.03
2022-12-10T01:54:30.180Z,56.63
2022-12-10T01:57:14.327Z,57.70
2022-12-10T01:59:42.966Z,63.33
2022-12-10T02:02:42.136Z,59.67
2022-12-10T02:05:09.740Z,63.37
2022-12-10T02:08:15.176Z,61.80
2022-12-10T02:11:14.834Z,60.80
2022-12-10T02:13:51.822Z,59.40
2022-12-10T02:16:35.783Z,58.33
2022-12-10T02:19:56.380Z,60.63
2022-12-10T02:22:27.198Z,59.97
2022-12-10T02:24:56.909Z,59.73
2022-12-10T02:27:47.944Z,55.77
2022-12-10T02:30:15.923Z,56.37
2022-12-10T02:32:45.902Z,58.10
2022-12-10T02:35:26.930Z,54.30
2022-12-10T02:38:02.566Z,57.43
2022-12-10T02:40:35.090Z,56.20
2022-12-10T02:43:02.598Z,65.03
2022-12-10T02:45:31.907Z,66.27
2022-12-10T02:48:02.608Z,75.70
2022-12-10T02:50:30.324Z,66.23
2022-12-10T02:52:57.802Z,66.70
2022-12-10T02:55:25.339Z,68.50
2022-12-10T02:58:51.245Z,68.50
2022-12-10T03:01:24.216Z,66.47
2022-12-10T03:03:58.248Z,64.83
2022-12-10T03:06:39.771Z,65.67
2022-12-10T03:09:21.617Z,63.80
2022-12-10T03:11:59.365Z,64.97
2022-12-10T03:14:32.681Z,59.07
2022-12-10T03:17:02.407Z,58.50
2022-12-10T03:19:44.424Z,61.33
2022-12-10T03:22:14.536Z,62.33
2022-12-10T03:24:43.919Z,62.90
2022-12-10T03:27:13.795Z,57.87
2022-12-10T03:29:51.628Z,53.47
2022-12-10T03:32:22.599Z,58.10
2022-12-10T03:34:53.237Z,50.03
2022-12-10T03:37:23.040Z,45.73
2022-12-10T03:39:50.837Z,48.33
2022-12-10T03:42:18.368Z,49.27
2022-12-10T03:44:45.803Z,47.67
2022-12-10T03:47:15.763Z,41.47
2022-12-10T03:49:44.283Z,44.40
2022-12-10T03:52:12.444Z,46.07
2022-12-10T03:54:40.095Z,44.07
2022-12-10T03:57:07.924Z,43.47
2022-12-10T03:59:35.434Z,43.83
2022-12-10T04:02:02.917Z,43.50
2022-12-10T04:04:30.463Z,43.43
2022-12-10T04:06:57.977Z,40.33
2022-12-10T04:09:25.400Z,40.50
2022-12-10T04:11:58.358Z,40.70
2022-12-10T04:14:45.780Z,40.33
2022-12-10T04:17:13.991Z,39.73
2022-12-10T04:19:41.555Z,40.00
2022-12-10T04:22:29.129Z,37.87
2022-12-10T04:25:15.311Z,36.97
2022-12-10T04:27:42.801Z,38.63
2022-12-10T04:30:13.492Z,36.17
2022-12-10T04:32:41.043Z,38.43
2022-12-10T04:35:09.508Z,35.60
2022-12-10T04:37:37.304Z,35.13
2022-12-10T04:40:06.861Z,34.83
2022-12-10T04:42:35.087Z,33.83
2022-12-10T04:45:02.670Z,36.13
2022-12-10T04:47:30.087Z,33.63
2022-12-10T04:49:57.469Z,35.03
2022-12-10T04:52:24.919Z,34.53
2022-12-10T04:54:52.376Z,35.23
2022-12-10T04:57:19.855Z,38.27
2022-12-10T04:59:47.310Z,35.47
2022-12-10T05:02:14.897Z,37.37
2022-12-10T05:04:42.538Z,37.03
2022-12-10T05:07:10.124Z,36.37
2022-12-10T05:09:39.039Z,38.07
2022-12-10T05:12:06.811Z,37.13
2022-12-10T05:14:34.265Z,38.07
2022-12-10T05:17:01.804Z,37.77
2022-12-10T05:19:29.255Z,39.03
2022-12-10T05:22:15.266Z,37.40
2022-12-10T05:24:42.778Z,38.80
2022-12-10T05:27:10.201Z,33.57
2022-12-10T05:29:37.632Z,36.80
2022-12-10T05:32:05.836Z,36.17
2022-12-10T05:34:33.513Z,39.43
2022-12-10T05:37:01.125Z,41.60
2022-12-10T05:39:28.524Z,40.93
2022-12-10T05:41:56.159Z,39.50
2022-12-10T05:44:23.792Z,42.33
2022-12-10T05:46:51.238Z,113.37
2022-12-10T05:49:18.726Z,99.00
2022-12-10T05:51:46.125Z,105.87
2022-12-10T05:54:13.559Z,69.17
2022-12-10T05:56:41.140Z,68.50
2022-12-10T05:59:12.984Z,49.10
2022-12-10T06:01:46.281Z,54.47
2022-12-10T06:04:15.457Z,51.67
2022-12-10T06:06:43.054Z,43.70
2022-12-10T06:09:14.878Z,45.63
2022-12-10T06:11:42.592Z,52.57
2022-12-10T06:14:11.349Z,50.83
2022-12-10T06:16:41.777Z,48.47
2022-12-10T06:19:09.313Z,48.20
2022-12-10T06:21:36.881Z,47.30
2022-12-10T06:24:04.411Z,43.63
2022-12-10T06:26:31.967Z,68.70
2022-12-10T06:28:59.530Z,60.83
2022-12-10T06:31:27.131Z,55.30
2022-12-10T06:33:55.763Z,41.10
2022-12-10T06:36:23.252Z,51.40
2022-12-10T06:38:50.673Z,38.80
2022-12-10T06:41:21.620Z,41.50
2022-12-10T06:43:50.228Z,39.40
2022-12-10T06:46:21.000Z,42.50
2022-12-10T06:48:48.751Z,49.40
2022-12-10T06:51:16.401Z,62.90
2022-12-10T06:53:44.756Z,36.40
2022-12-10T06:56:19.808Z,36.73
2022-12-10T06:58:48.433Z,40.00
2022-12-10T07:01:21.617Z,42.07
2022-12-10T07:03:57.316Z,36.50
2022-12-10T07:06:26.316Z,40.83
2022-12-10T07:08:53.816Z,34.30
2022-12-10T07:11:23.873Z,34.83
2022-12-10T07:13:52.312Z,36.93
2022-12-10T07:16:26.902Z,38.20
2022-12-10T07:18:56.835Z,31.33
2022-12-10T07:21:31.509Z,31.70
2022-12-10T07:24:05.628Z,35.20
2022-12-10T07:26:37.032Z,29.27
2022-12-10T07:29:06.794Z,32.60
2022-12-10T07:31:35.352Z,34.73
2022-12-10T07:34:02.855Z,33.93
2022-12-10T07:36:30.688Z,36.90
2022-12-10T07:38:58.508Z,35.23
2022-12-10T07:41:28.884Z,49.53
2022-12-10T07:43:56.304Z,38.87
2022-12-10T07:46:30.554Z,34.80
2022-12-10T07:49:01.520Z,37.17
2022-12-10T07:51:30.492Z,40.77
2022-12-10T07:53:58.397Z,36.10
2022-12-10T07:56:26.621Z,33.90
2022-12-10T07:58:55.031Z,35.83
2022-12-10T08:01:26.665Z,38.00
2022-12-10T08:03:59.725Z,35.87
2022-12-10T08:06:30.283Z,33.37
2022-12-10T08:09:00.864Z,40.23
2022-12-10T08:11:29.509Z,35.90
2022-12-10T08:13:57.987Z,36.97
2022-12-10T08:16:29.608Z,40.93
2022-12-10T08:19:02.857Z,40.77
2022-12-10T08:21:33.323Z,48.37
2022-12-10T08:24:01.827Z,65.63
2022-12-10T08:26:33.042Z,46.17
2022-12-10T08:29:01.805Z,38.27
2022-12-10T08:31:34.319Z,35.27
2022-12-10T08:34:05.975Z,37.47
2022-12-10T08:36:33.451Z,36.83
2022-12-10T08:39:00.984Z,41.83
2022-12-10T08:41:28.418Z,49.80
2022-12-10T08:43:56.328Z,38.70
2022-12-10T08:46:24.420Z,40.87
2022-12-10T08:48:51.965Z,50.13
2022-12-10T08:51:21.394Z,71.07
2022-12-10T08:53:49.012Z,47.13
2022-12-10T08:56:16.565Z,45.27
2022-12-10T08:58:44.348Z,44.90
2022-12-10T09:01:17.785Z,46.13
2022-12-10T09:03:46.401Z,59.73
2022-12-10T09:06:18.231Z,47.57
2022-12-10T09:08:46.412Z,50.23
2022-12-10T09:11:31.415Z,48.73
2022-12-10T09:13:59.684Z,60.13
2022-12-10T09:16:35.871Z,53.93
2022-12-10T09:19:05.527Z,44.97
2022-12-10T09:21:33.544Z,39.73
2022-12-10T09:24:01.023Z,37.97
2022-12-10T09:26:28.767Z,38.27
2022-12-10T09:28:56.584Z,36.63
2022-12-10T09:31:23.995Z,55.70
2022-12-10T09:33:53.854Z,59.20
2022-12-10T09:36:22.663Z,50.13
2022-12-10T09:38:51.193Z,43.43
2022-12-10T09:41:51.325Z,39.63
2022-12-10T09:44:27.617Z,47.13
2022-12-10T09:47:04.931Z,43.87
2022-12-10T09:50:26.539Z,50.77
2022-12-10T09:52:56.132Z,34.37
2022-12-10T09:55:32.440Z,34.60
2022-12-10T09:58:01.389Z,36.40
2022-12-10T10:00:40.768Z,32.87
2022-12-10T10:03:16.215Z,30.30
2022-12-10T10:05:49.636Z,36.57
2022-12-10T10:08:42.745Z,58.17
2022-12-10T10:11:19.867Z,53.70
2022-12-10T10:14:11.100Z,57.33
2022-12-10T10:16:49.312Z,42.33
2022-12-10T10:19:27.141Z,34.07
2022-12-10T10:21:55.081Z,81.97
2022-12-10T10:24:41.229Z,58.57
2022-12-10T10:27:23.536Z,34.00
2022-12-10T10:29:57.830Z,95.67
2022-12-10T10:32:54.037Z,51.83
2022-12-10T10:35:35.467Z,47.80
2022-12-10T10:38:18.980Z,55.30
2022-12-10T10:40:52.247Z,44.50
2022-12-10T10:43:29.698Z,53.87
2022-12-10T10:46:13.191Z,72.83
2022-12-10T10:48:41.216Z,60.93
2022-12-10T10:51:17.208Z,67.37
2022-12-10T10:54:05.710Z,41.90
2022-12-10T10:56:44.725Z,49.07
2022-12-10T10:59:16.964Z,48.13
2022-12-10T11:02:03.077Z,44.83
2022-12-10T11:04:47.198Z,48.73
2022-12-10T11:07:34.997Z,40.17
2022-12-10T11:10:24.352Z,57.67
2022-12-10T11:12:58.045Z,43.30
2022-12-10T11:15:29.890Z,41.77
2022-12-10T11:17:57.866Z,37.40
2022-12-10T11:20:41.743Z,41.30
2022-12-10T11:23:13.721Z,59.33
2022-12-10T11:26:20.294Z,66.67
2022-12-10T11:29:24.407Z,37.67
2022-12-10T11:32:11.156Z,55.40
2022-12-10T11:34:44.511Z,76.87
2022-12-10T11:37:31.396Z,64.77
2022-12-10T11:40:28.943Z,69.73
2022-12-10T11:43:27.777Z,70.63
2022-12-10T11:46:53.254Z,53.63
2022-12-10T11:49:20.594Z,44.53
2022-12-10T11:52:05.962Z,39.53
2022-12-10T11:54:58.615Z,44.60
2022-12-10T11:57:57.575Z,44.33
2022-12-10T12:00:29.302Z,42.43
2022-12-10T12:03:38.065Z,49.17
2022-12-10T12:06:26.995Z,36.70
2022-12-10T12:09:23.135Z,45.67
2022-12-10T12:12:16.660Z,39.63
2022-12-10T12:14:45.689Z,38.27
2022-12-10T12:17:32.324Z,39.87
2022-12-10T12:20:07.213Z,41.97
2022-12-10T12:22:44.573Z,40.40
2022-12-10T12:25:39.690Z,44.13
2022-12-10T12:28:13.528Z,43.37
2022-12-10T12:30:45.257Z,41.00
2022-12-10T12:33:25.494Z,38.23
2022-12-10T12:36:01.372Z,39.80
2022-12-10T12:38:51.388Z,40.40
2022-12-10T12:42:07.959Z,38.03
2022-12-10T12:45:10.204Z,41.63
2022-12-10T12:48:18.664Z,40.90
2022-12-10T12:51:00.098Z,38.03
2022-12-10T12:53:33.318Z,39.73
2022-12-10T12:56:32.321Z,37.80
2022-12-10T12:59:13.849Z,42.03
2022-12-10T13:01:51.033Z,41.20
2022-12-10T13:04:19.215Z,42.47
2022-12-10T13:07:13.178Z,45.63
2022-12-10T13:09:53.324Z,44.23
2022-12-10T13:12:30.940Z,40.97
2022-12-10T13:15:25.131Z,40.47
2022-12-10T13:18:19.830Z,39.33
2022-12-10T13:21:18.393Z,37.93
2022-12-10T13:23:53.958Z,43.47
2022-12-10T13:26:31.238Z,38.47
2022-12-10T13:29:13.678Z,41.80
2022-12-10T13:31:41.383Z,37.97
2022-12-10T13:34:35.294Z,39.50
2022-12-10T13:37:02.645Z,41.93
2022-12-10T13:39:47.558Z,63.03
2022-12-10T13:42:33.149Z,47.97
2022-12-10T13:45:07.744Z,44.47
2022-12-10T13:47:38.100Z,43.43
2022-12-10T13:50:19.938Z,42.77
2022-12-10T13:53:15.684Z,42.73
2022-12-10T13:56:27.455Z,52.50
2022-12-10T13:59:06.774Z,49.00
2022-12-10T14:01:56.085Z,53.93
2022-12-10T14:04:44.564Z,76.40
2022-12-10T14:07:14.427Z,58.57
2022-12-10T14:09:52.558Z,58.00
2022-12-10T14:12:41.244Z,48.23
2022-12-10T14:15:25.488Z,51.27
2022-12-10T14:18:03.728Z,51.40
2022-12-10T14:20:34.223Z,48.03
2022-12-10T14:23:42.533Z,47.87
2022-12-10T14:26:20.697Z,53.17
2022-12-10T14:29:08.313Z,71.60
2022-12-10T14:31:45.433Z,53.03
2022-12-10T14:34:18.901Z,47.33
2022-12-10T14:36:50.754Z,44.13
2022-12-10T14:39:30.843Z,43.53
2022-12-10T14:42:02.815Z,62.80
2022-12-10T14:44:31.378Z,45.37
2022-12-10T14:47:17.959Z,69.20
2022-12-10T14:49:49.321Z,62.17
2022-12-10T14:52:21.756Z,55.90
2022-12-10T14:54:49.987Z,43.10
2022-12-10T14:57:32.918Z,45.07
2022-12-10T15:00:10.732Z,49.00
2022-12-10T15:02:45.585Z,51.90
2022-12-10T15:05:24.698Z,43.20
2022-12-10T15:07:58.186Z,43.97
2022-12-10T15:10:42.118Z,53.97
2022-12-10T15:13:26.009Z,51.00
2022-12-10T15:15:54.993Z,47.17
2022-12-10T15:18:34.589Z,48.73
2022-12-10T15:21:21.778Z,47.40
2022-12-10T15:23:50.106Z,44.47
2022-12-10T15:26:26.298Z,53.67
2022-12-10T15:29:30.342Z,48.70
2022-12-10T15:32:04.845Z,43.80
2022-12-10T15:34:41.271Z,44.17
2022-12-10T15:37:23.364Z,43.23
2022-12-10T15:39:58.790Z,40.50
2022-12-10T15:42:32.844Z,42.53
2022-12-10T15:45:12.684Z,47.80
2022-12-10T15:47:40.317Z,43.67
2022-12-10T15:50:08.273Z,44.47
2022-12-10T15:52:36.741Z,49.23
2022-12-10T15:55:04.638Z,69.73
2022-12-10T15:57:50.277Z,69.87
2022-12-10T16:00:25.717Z,82.90
2022-12-10T16:03:04.337Z,47.53
2022-12-10T16:05:37.580Z,65.60
2022-12-10T16:08:26.109Z,61.90
2022-12-10T16:10:57.383Z,58.30
2022-12-10T16:13:36.123Z,54.57
2022-12-10T16:16:09.660Z,44.40
2022-12-10T16:18:38.201Z,52.03
2022-12-10T16:21:07.961Z,41.10
2022-12-10T16:23:35.799Z,44.43
2022-12-10T16:26:03.739Z,50.00
2022-12-10T16:28:31.112Z,46.03
2022-12-10T16:31:00.183Z,44.13
2022-12-10T16:33:29.365Z,43.73
2022-12-10T16:36:03.211Z,46.77
2022-12-10T16:38:30.619Z,47.60
2022-12-10T16:40:58.529Z,42.07
2022-12-10T16:43:33.883Z,45.50
2022-12-10T16:46:01.378Z,47.40
2022-12-10T16:48:28.793Z,50.90
2022-12-10T16:51:03.840Z,50.47
2022-12-10T16:53:36.951Z,45.53
2022-12-10T16:56:06.606Z,47.87
2022-12-10T16:58:34.034Z,45.90
2022-12-10T17:01:02.343Z,45.53
2022-12-10T17:03:31.581Z,45.77
2022-12-10T17:06:02.004Z,46.17
2022-12-10T17:08:30.250Z,51.30
2022-12-10T17:11:16.892Z,49.37
2022-12-10T17:13:46.048Z,47.17
2022-12-10T17:16:22.545Z,44.13
2022-12-10T17:18:50.077Z,45.27
2022-12-10T17:21:17.643Z,47.20
2022-12-10T17:23:45.278Z,45.03
2022-12-10T17:26:28.146Z,50.73
2022-12-10T17:29:03.761Z,59.07
2022-12-10T17:31:32.063Z,119.27
2022-12-10T17:33:59.843Z,58.67
2022-12-10T17:36:27.879Z,72.70
2022-12-10T17:38:55.332Z,71.47
2022-12-10T17:41:22.796Z,76.03
2022-12-10T17:43:50.925Z,88.37
2022-12-10T17:46:24.161Z,101.63
2022-12-10T17:48:52.842Z,70.43
2022-12-10T17:51:20.455Z,73.83
2022-12-10T17:53:48.184Z,58.57
2022-12-10T17:56:22.025Z,50.23
2022-12-10T17:58:51.390Z,54.47
2022-12-10T18:01:20.824Z,56.73
2022-12-10T18:03:49.048Z,51.20
2022-12-10T18:06:21.965Z,50.30
2022-12-10T18:08:50.246Z,50.20
2022-12-10T18:11:24.875Z,52.27
2022-12-10T18:13:52.691Z,49.50
2022-12-10T18:16:32.404Z,50.23
2022-12-10T18:19:04.582Z,59.63
2022-12-10T18:21:32.019Z,48.90
2022-12-10T18:24:00.380Z,49.00
2022-12-10T18:26:27.872Z,47.20
2022-12-10T18:29:00.405Z,61.40
2022-12-10T18:31:32.099Z,50.87
2022-12-10T18:34:05.894Z,64.03
2022-12-10T18:36:38.157Z,66.37
2022-12-10T18:39:34.911Z,55.77
2022-12-10T18:42:02.407Z,47.30
2022-12-10T18:44:30.670Z,53.93
2022-12-10T18:46:59.852Z,54.60
2022-12-10T18:49:28.718Z,52.30
2022-12-10T18:51:56.369Z,44.37
2022-12-10T18:54:23.903Z,45.83
2022-12-10T18:57:24.547Z,47.87
2022-12-10T18:59:38.954Z,74.87
2022-12-10T19:02:07.137Z,53.37
2022-12-10T19:04:34.758Z,48.33
2022-12-10T19:07:02.566Z,44.40
2022-12-10T19:09:32.671Z,52.57
2022-12-10T19:12:00.378Z,59.13
2022-12-10T19:14:27.767Z,47.00
2022-12-10T19:16:55.257Z,51.60
2022-12-10T19:19:22.696Z,54.37
2022-12-10T19:21:50.198Z,45.83
2022-12-10T19:24:17.836Z,44.17
2022-12-10T19:26:45.771Z,52.60
2022-12-10T19:29:19.571Z,54.30
2022-12-10T19:31:47.281Z,45.77
2022-12-10T19:34:17.357Z,45.77
2022-12-10T19:36:45.738Z,49.13
2022-12-10T19:39:24.917Z,48.87
2022-12-10T19:41:55.291Z,44.33
2022-12-10T19:44:22.889Z,42.93
2022-12-10T19:46:51.311Z,46.53
2022-12-10T19:49:20.400Z,46.00
2022-12-10T19:51:48.320Z,45.20
2022-12-10T19:54:16.389Z,49.80
2022-12-10T19:56:44.007Z,45.53
2022-12-10T19:59:19.238Z,48.43
2022-12-10T20:01:48.145Z,51.00
2022-12-10T20:04:17.761Z,52.47
2022-12-10T20:06:48.464Z,52.33
2022-12-10T20:09:30.035Z,47.93
2022-12-10T20:11:57.881Z,57.77
2022-12-10T20:14:25.411Z,48.57
2022-12-10T20:16:53.980Z,52.90
2022-12-10T20:19:24.295Z,46.40
2022-12-10T20:21:53.343Z,46.33
2022-12-10T20:24:21.111Z,49.97
2022-12-10T20:26:49.946Z,48.83
2022-12-10T20:29:23.985Z,51.47
2022-12-10T20:31:54.777Z,49.53
2022-12-10T20:34:24.152Z,59.07
2022-12-10T20:36:52.426Z,42.13
2022-12-10T20:39:30.134Z,44.27
2022-12-10T20:41:59.405Z,40.83
2022-12-10T20:44:28.621Z,57.67
2022-12-10T20:46:57.884Z,55.37
2022-12-10T20:49:27.448Z,50.87
2022-12-10T20:51:55.500Z,52.50
2022-12-10T20:54:23.029Z,44.83
2022-12-10T20:56:53.516Z,38.77
2022-12-10T20:59:20.988Z,40.80
2022-12-10T21:01:48.834Z,44.40
2022-12-10T21:04:16.555Z,47.00
2022-12-10T21:06:45.424Z,45.63
2022-12-10T21:09:13.765Z,46.73
2022-12-10T21:11:41.273Z,44.37
2022-12-10T21:14:18.366Z,48.87
2022-12-10T21:16:58.767Z,41.80
2022-12-10T21:19:26.979Z,42.90
2022-12-10T21:21:54.659Z,44.50
2022-12-10T21:24:22.693Z,45.00
2022-12-10T21:26:50.294Z,42.43
2022-12-10T21:29:17.700Z,42.10
2022-12-10T21:31:45.776Z,40.80
2022-12-10T21:34:13.270Z,43.90
2022-12-10T21:36:40.618Z,43.87
2022-12-10T21:39:08.474Z,47.67
2022-12-10T21:41:54.651Z,45.00
2022-12-10T21:44:22.098Z,47.33
2022-12-10T21:46:49.560Z,47.80
2022-12-10T21:49:17.186Z,46.30
2022-12-10T21:51:44.653Z,49.43
2022-12-10T21:54:12.228Z,48.07
2022-12-10T21:56:40.677Z,45.13
2022-12-10T21:59:08.305Z,49.17
2022-12-10T22:01:35.748Z,48.33
2022-12-10T22:04:03.195Z,49.17
2022-12-10T22:06:30.835Z,49.13
2022-12-10T22:08:58.803Z,49.30
2022-12-10T22:11:26.497Z,46.07
2022-12-10T22:13:56.081Z,50.17
2022-12-10T22:16:23.769Z,49.63
2022-12-10T22:18:51.316Z,52.97
2022-12-10T22:21:23.746Z,52.60
2022-12-10T22:23:55.548Z,51.00
2022-12-10T22:26:23.632Z,52.37
2022-12-10T22:28:51.167Z,52.27
2022-12-10T22:31:20.103Z,50.67
2022-12-10T22:33:47.698Z,55.17
2022-12-10T22:36:15.889Z,56.30
2022-12-10T22:38:43.844Z,51.93
2022-12-10T22:41:12.074Z,53.90
2022-12-10T22:43:55.024Z,54.77
2022-12-10T22:46:22.563Z,55.47
2022-12-10T22:48:50.195Z,56.00
2022-12-10T22:51:17.880Z,54.03
2022-12-10T22:53:45.789Z,55.03
2022-12-10T22:56:15.259Z,54.77
2022-12-10T22:58:43.823Z,54.27
2022-12-10T23:01:19.971Z,62.50
2022-12-10T23:03:50.488Z,58.20
2022-12-10T23:06:18.696Z,54.70
2022-12-10T23:08:46.171Z,58.70
2022-12-10T23:11:15.381Z,58.67
2022-12-10T23:13:43.505Z,57.27
2022-12-10T23:16:15.395Z,60.30
2022-12-10T23:18:44.795Z,58.07
2022-12-10T23:21:23.182Z,58.00
2022-12-10T23:23:51.055Z,61.27
2022-12-10T23:26:19.248Z,59.03
2022-12-10T23:28:48.611Z,59.83
2022-12-10T23:31:18.366Z,54.30
2022-12-10T23:33:45.940Z,56.23
2022-12-10T23:36:13.355Z,58.53
2022-12-10T23:38:40.872Z,61.43
2022-12-10T23:41:11.206Z,56.23
2022-12-10T23:43:39.180Z,56.97
2022-12-10T23:46:08.765Z,58.80
2022-12-10T23:48:36.486Z,52.53
2022-12-10T23:51:04.041Z,58.13
2022-12-10T23:53:32.501Z,57.07
2022-12-10T23:56:00.158Z,54.80
2022-12-10T23:58:27.672Z,53.57
